Cruise inventory

FRV Scotia 0792S

Cruise summary report

Cruise Info. 
Ship name (ship code)FRV Scotia (749S)
Cruise identifier0792S
Cruise period1992-06-13 — 1992-06-22
StatusCompleted
Port of departureAberdeen, United Kingdom
Port of returnAberdeen, United Kingdom
Objectives1. To collect hydrographic and chemistry (silicate) samples using water bottles and CTD profilers along the Fair Isle-Munken, Faroe and the Nolso, Faroe-Flugga, Shetland sections.
2. To carry out hydrographic studies, including the use of the vessel mounted ADCP in the northern North Sea along the Jonsis Line, along the EC line and at selected stations as part of the initial study of the Scottish North Sea coastal zone.
3. To collect water samples for radio-caesium analysis by MAFF Lowestoft.
Chief scientistRodney Payne (Scottish Office Agriculture and Fisheries Department Aberdeen Marine Laboratory)
Cruise reportFRV Scotia 0792S cruise report sc07_92.pdf — access key 'C' (0.07 MB) 
Ocean/sea areas 
GeneralNorth Sea
North East Atlantic Ocean (limit 40W)
SpecificScottish North Sea
Track chartsFRV Scotia 0792S cruise track — trk3872.html
Measurements 
Physical oceanography 
Surface measurements underway (T,S)Quantity: number of measurements = 1360
Water bottle stationsQuantity: number of stations = 24
Description: deep stations
CTD stationsQuantity: number of stations = 79
Description: NBIS
Current profiler (eg ADCP)Quantity: activity duration in hours = 24
Description: hour survey
Chemical oceanography 
PhosphateQuantity: number of samples = 12
NitrateQuantity: number of samples = 12
SilicateQuantity: number of samples = 36
Biology and fisheries 
Phytoplankton pigs (eg chlorophyll, fluorescence)Quantity: number of samples = 12
Data held at BODC 
Series/Profiles 
79  CTD/STD cast
Density of the water column
Electrical conductivity of the water column
Vertical spatial coordinates
Salinity of the water column
Temperature of the water column
Density of the water column
Electrical conductivity of the water column
Vertical spatial coordinates
Salinity of the water column
Temperature of the water column

BODC idDate/TimeLocationDoc.
4147791992-06-13 15:18 57° 48' 6" N  2° 0' 24" W  View metadata report for BODC series reference number 414779
4147801992-06-13 16:34 57° 52' 48" N  1° 45' 36" W  View metadata report for BODC series reference number 414780
4147921992-06-13 17:59 57° 58' 1" N  1° 29' 47" W  View metadata report for BODC series reference number 414792
4148111992-06-13 19:01 58° 2' 56" N  1° 15' 56" W  View metadata report for BODC series reference number 414811
4148231992-06-13 20:19 58° 7' 59" N  0° 59' 57" W  View metadata report for BODC series reference number 414823
4148351992-06-13 21:19 58° 12' 41" N  0° 45' 26" W  View metadata report for BODC series reference number 414835
4148471992-06-13 22:19 58° 17' 39" N  0° 29' 49" W  View metadata report for BODC series reference number 414847
4148591992-06-13 23:20 58° 22' 28" N  0° 14' 52" W  View metadata report for BODC series reference number 414859
4148601992-06-14 00:20 58° 27' 54" N  0° 1' 9" W  View metadata report for BODC series reference number 414860
4148721992-06-14 01:25 58° 33' 8" N  0° 14' 9" E  View metadata report for BODC series reference number 414872
4148841992-06-14 02:32 58° 38' 20" N  0° 27' 34" E  View metadata report for BODC series reference number 414884
4148961992-06-14 03:31 58° 42' 58" N  0° 44' 16" E  View metadata report for BODC series reference number 414896
4149031992-06-14 04:42 58° 50' 7" N  0° 59' 51" E  View metadata report for BODC series reference number 414903
4149151992-06-14 05:45 59° 0' 4" N  0° 59' 46" E  View metadata report for BODC series reference number 414915
4149271992-06-14 07:03 59° 9' 54" N  1° 0' 4" E  View metadata report for BODC series reference number 414927
4149391992-06-14 08:16 59° 19' 47" N  0° 59' 32" E  View metadata report for BODC series reference number 414939
4149401992-06-14 09:44 59° 17' 5" N  1° 19' 9" E  View metadata report for BODC series reference number 414940
4149521992-06-14 11:07 59° 17' 3" N  0° 59' 43" E  View metadata report for BODC series reference number 414952
4149641992-06-14 12:14 59° 17' 36" N  0° 40' 25" E  View metadata report for BODC series reference number 414964
4149761992-06-14 13:37 59° 16' 39" N  0° 19' 36" E  View metadata report for BODC series reference number 414976
4149881992-06-14 14:46 59° 16' 55" N  0° 0' 21" E  View metadata report for BODC series reference number 414988
4150031992-06-14 16:30 59° 17' 3" N  0° 19' 4" W  View metadata report for BODC series reference number 415003
4150151992-06-14 18:03 59° 16' 55" N  0° 42' 38" W  View metadata report for BODC series reference number 415015
4150271992-06-14 19:24 59° 16' 40" N  0° 59' 22" W  View metadata report for BODC series reference number 415027
4150391992-06-14 20:29 59° 16' 36" N  1° 9' 35" W  View metadata report for BODC series reference number 415039
4150401992-06-14 21:39 59° 17' 16" N  1° 19' 21" W  View metadata report for BODC series reference number 415040
4150641992-06-15 00:05 59° 17' 51" N  1° 38' 57" W  View metadata report for BODC series reference number 415064
4150761992-06-15 01:14 59° 17' 1" N  1° 48' 6" W  View metadata report for BODC series reference number 415076
4150881992-06-15 02:21 59° 17' 6" N  1° 56' 20" W  View metadata report for BODC series reference number 415088
4151071992-06-15 03:30 59° 17' 4" N  2° 5' 13" W  View metadata report for BODC series reference number 415107
4151191992-06-15 04:38 59° 17' 11" N  2° 14' 9" W  View metadata report for BODC series reference number 415119
4151201992-06-17 15:06 60° 49' 23" N  0° 44' 8" W  View metadata report for BODC series reference number 415120
4151321992-06-17 15:30 60° 49' 58" N  0° 39' 40" W  View metadata report for BODC series reference number 415132
4151441992-06-17 16:10 60° 50' 7" N  0° 29' 48" W  View metadata report for BODC series reference number 415144
4151561992-06-17 16:50 60° 50' 17" N  0° 20' 25" W  View metadata report for BODC series reference number 415156
4151681992-06-17 18:20 60° 49' 55" N  0° 0' 4" W  View metadata report for BODC series reference number 415168
4151811992-06-17 19:34 60° 50' 26" N  0° 18' 28" E  View metadata report for BODC series reference number 415181
4151931992-06-17 20:42 60° 50' 15" N  0° 38' 2" E  View metadata report for BODC series reference number 415193
4152001992-06-17 21:49 60° 50' 18" N  0° 59' 10" E  View metadata report for BODC series reference number 415200
4152121992-06-17 22:59 60° 50' 34" N  1° 18' 15" E  View metadata report for BODC series reference number 415212
4152241992-06-18 00:11 60° 49' 53" N  1° 39' 9" E  View metadata report for BODC series reference number 415224
4152361992-06-18 02:11 60° 31' 49" N  1° 29' 8" E  View metadata report for BODC series reference number 415236
4152481992-06-18 03:15 60° 28' 59" N  1° 14' 53" E  View metadata report for BODC series reference number 415248
4152611992-06-18 04:17 60° 28' 59" N  0° 59' 48" E  View metadata report for BODC series reference number 415261
4152731992-06-18 05:34 60° 29' 5" N  0° 44' 43" E  View metadata report for BODC series reference number 415273
4152851992-06-18 06:33 60° 29' 4" N  0° 30' 2" E  View metadata report for BODC series reference number 415285
4152971992-06-18 07:28 60° 29' 21" N  0° 15' 52" E  View metadata report for BODC series reference number 415297
4153041992-06-18 08:20 60° 29' 24" N  0° 0' 34" E  View metadata report for BODC series reference number 415304
4153161992-06-18 09:14 60° 29' 0" N  0° 14' 8" W  View metadata report for BODC series reference number 415316
4153281992-06-18 10:08 60° 29' 1" N  0° 29' 16" W  View metadata report for BODC series reference number 415328
4153411992-06-18 10:59 60° 29' 27" N  0° 43' 40" W  View metadata report for BODC series reference number 415341
4153531992-06-18 11:42 60° 28' 57" N  0° 54' 58" W  View metadata report for BODC series reference number 415353
4153651992-06-19 15:55 60° 0' 29" N  0° 59' 49" W  View metadata report for BODC series reference number 415365
4153771992-06-19 16:52 59° 59' 36" N  0° 45' 56" W  View metadata report for BODC series reference number 415377
4153891992-06-19 17:53 60° 0' 1" N  0° 29' 43" W  View metadata report for BODC series reference number 415389
4153901992-06-19 18:43 59° 59' 40" N  0° 14' 57" W  View metadata report for BODC series reference number 415390
4154081992-06-19 19:37 59° 59' 44" N  0° 0' 33" W  View metadata report for BODC series reference number 415408
4154211992-06-19 20:25 59° 59' 45" N  0° 14' 30" E  View metadata report for BODC series reference number 415421
4154331992-06-19 21:30 59° 59' 49" N  0° 29' 26" E  View metadata report for BODC series reference number 415433
4154451992-06-19 22:18 59° 59' 43" N  0° 44' 28" E  View metadata report for BODC series reference number 415445
4154571992-06-19 23:07 59° 59' 41" N  0° 52' 16" E  View metadata report for BODC series reference number 415457
4154691992-06-20 00:30 60° 0' 15" N  1° 14' 34" E  View metadata report for BODC series reference number 415469
4154701992-06-20 01:27 59° 59' 58" N  1° 30' 12" E  View metadata report for BODC series reference number 415470
4154821992-06-20 04:48 59° 29' 54" N  0° 59' 52" E  View metadata report for BODC series reference number 415482
4154941992-06-20 06:33 59° 30' 0" N  0° 30' 8" E  View metadata report for BODC series reference number 415494
4155011992-06-20 08:25 59° 29' 42" N  0° 0' 3" W  View metadata report for BODC series reference number 415501
4155131992-06-20 10:15 59° 29' 35" N  0° 29' 31" W  View metadata report for BODC series reference number 415513
4155251992-06-20 12:20 59° 29' 57" N  1° 0' 2" W  View metadata report for BODC series reference number 415525
4155371992-06-20 14:32 59° 29' 51" N  1° 30' 4" W  View metadata report for BODC series reference number 415537
4155491992-06-20 17:27 59° 30' 18" N  1° 59' 19" W  View metadata report for BODC series reference number 415549
4155501992-06-20 19:21 59° 29' 48" N  2° 29' 40" W  View metadata report for BODC series reference number 415550
4155621992-06-20 22:21 59° 30' 0" N  3° 0' 6" W  View metadata report for BODC series reference number 415562
4155741992-06-21 00:42 59° 29' 58" N  3° 28' 45" W  View metadata report for BODC series reference number 415574
4155861992-06-21 03:04 59° 23' 59" N  4° 2' 12" W  View metadata report for BODC series reference number 415586
4155981992-06-21 04:07 59° 20' 6" N  3° 49' 14" W  View metadata report for BODC series reference number 415598
4156051992-06-21 04:45 59° 18' 58" N  3° 42' 17" W  View metadata report for BODC series reference number 415605
4156171992-06-21 05:48 59° 17' 34" N  3° 35' 35" W  View metadata report for BODC series reference number 415617
4156291992-06-21 06:35 59° 15' 2" N  3° 22' 31" W  View metadata report for BODC series reference number 415629
4150521992-06-14 22:48 59° 16' 48" N  1° 31' 12" W  View metadata report for BODC series reference number 415052